Time;durP1;ratioP1;P1;durP2;ratioP2;P2;SDS_P1;SDS_P2;PMS_P1;PMS_P2;Temp;Humidity;BMP_temperature;BMP_pressure;BME280_temperature;BME280_humidity;BME280_pressure;Samples;Min_cycle;Max_cycle;Signal;HPM_P1;HPM_P2
2023/11/17 00:00:46;;;;;;;2.15;1.10;;;7.80;99.90;;;;;;7501657;19;21153;-74
2023/11/17 00:03:18;;;;;;;2.45;0.90;;;7.80;99.90;;;;;;7513459;19;20023;-74
2023/11/17 00:05:54;;;;;;;3.25;1.25;;;7.80;99.90;;;;;;7523617;19;20101;-74
2023/11/17 00:08:28;;;;;;;4.50;1.40;;;7.80;99.90;;;;;;7507601;19;20025;-74
2023/11/17 00:11:01;;;;;;;5.07;2.92;;;7.70;99.90;;;;;;7497296;19;20150;-74
2023/11/17 00:13:33;;;;;;;5.13;1.20;;;7.80;99.90;;;;;;7516412;19;20017;-74
2023/11/17 00:16:06;;;;;;;2.88;0.70;;;7.80;99.90;;;;;;7497030;19;20018;-74
2023/11/17 00:18:39;;;;;;;0.95;0.60;;;7.90;99.90;;;;;;7517085;19;20076;-74
2023/11/17 00:21:13;;;;;;;1.10;0.90;;;7.90;99.90;;;;;;7524677;19;20566;-74
2023/11/17 00:23:46;;;;;;;2.13;0.85;;;8.00;99.90;;;;;;7515959;19;20019;-74
2023/11/17 00:26:19;;;;;;;0.73;0.60;;;7.90;99.90;;;;;;7495578;19;20118;-74
2023/11/17 00:28:54;;;;;;;1.92;1.00;;;7.90;99.90;;;;;;7519964;19;20813;-74
2023/11/17 00:31:30;;;;;;;1.25;0.90;;;8.00;99.90;;;;;;7506328;19;20048;-74
2023/11/17 00:34:03;;;;;;;0.90;0.75;;;8.00;99.90;;;;;;7489170;19;20017;-74
2023/11/17 00:36:42;;;;;;;1.27;0.95;;;7.90;99.90;;;;;;7515654;19;20053;-74
2023/11/17 00:39:15;;;;;;;3.63;1.25;;;8.00;99.90;;;;;;7503819;19;20134;-74
2023/11/17 00:41:47;;;;;;;5.75;1.83;;;7.90;99.90;;;;;;7515797;19;25677;-73
2023/11/17 00:44:21;;;;;;;6.40;1.80;;;7.90;99.90;;;;;;7495772;19;20022;-74
2023/11/17 00:46:54;;;;;;;2.65;1.60;;;7.80;99.90;;;;;;7502552;19;20022;-74
2023/11/17 00:49:26;;;;;;;2.00;1.50;;;7.70;99.90;;;;;;7522220;19;20018;-74
2023/11/17 00:51:59;;;;;;;5.35;1.80;;;7.70;99.90;;;;;;7527406;19;20038;-74
2023/11/17 00:54:37;;;;;;;2.35;1.58;;;7.70;99.90;;;;;;7506277;19;21044;-73
2023/11/17 00:57:10;;;;;;;1.63;0.93;;;7.70;99.90;;;;;;7511851;19;20082;-73
2023/11/17 00:59:43;;;;;;;0.85;0.70;;;7.60;99.90;;;;;;7513522;19;20018;-73
2023/11/17 01:02:15;;;;;;;0.80;0.60;;;7.60;99.90;;;;;;7514095;19;20018;-73
2023/11/17 01:04:49;;;;;;;0.82;0.70;;;7.50;99.90;;;;;;7499115;19;21784;-74
2023/11/17 01:07:21;;;;;;;1.60;0.68;;;7.50;99.90;;;;;;7481987;19;20011;-73
2023/11/17 01:09:55;;;;;;;0.95;0.70;;;7.40;99.90;;;;;;7509396;19;20908;-74
2023/11/17 01:12:28;;;;;;;1.48;0.85;;;7.40;99.90;;;;;;7508003;19;20011;-73
2023/11/17 01:15:03;;;;;;;1.00;0.90;;;7.30;99.90;;;;;;7512167;19;20750;-73
2023/11/17 01:17:36;;;;;;;7.47;4.88;;;7.30;99.90;;;;;;7506071;19;21408;-74
2023/11/17 01:20:09;;;;;;;3.20;2.53;;;7.30;99.90;;;;;;7498437;19;21490;-73
2023/11/17 01:22:43;;;;;;;4.78;2.90;;;7.20;99.90;;;;;;7485419;19;20029;-74
2023/11/17 01:25:15;;;;;;;5.03;3.00;;;7.00;99.90;;;;;;7486804;19;20052;-73
2023/11/17 01:27:50;;;;;;;4.20;2.73;;;7.00;99.90;;;;;;7503955;19;21101;-73
2023/11/17 01:30:23;;;;;;;2.15;1.90;;;6.90;99.90;;;;;;7493653;19;20037;-73
2023/11/17 01:32:57;;;;;;;2.80;2.20;;;6.80;99.90;;;;;;7491301;19;20034;-73
2023/11/17 01:35:30;;;;;;;;;;;6.70;99.90;;;;;;7512345;19;20022;-73
2023/11/17 01:38:02;;;;;;;3.85;2.03;;;6.60;99.90;;;;;;7502298;19;19921;-73
2023/11/17 01:40:35;;;;;;;2.67;2.10;;;6.60;99.90;;;;;;7478329;19;20018;-74
2023/11/17 01:43:11;;;;;;;2.63;2.15;;;6.50;99.90;;;;;;7491622;19;20025;-74
2023/11/17 01:45:44;;;;;;;2.45;1.58;;;6.40;99.90;;;;;;7479988;19;20038;-73
2023/11/17 01:48:18;;;;;;;2.85;1.27;;;6.30;99.90;;;;;;7506647;19;20014;-73
2023/11/17 01:50:52;;;;;;;1.50;1.10;;;6.20;99.90;;;;;;7467360;19;20102;-73
2023/11/17 01:53:24;;;;;;;1.92;1.48;;;6.10;99.90;;;;;;7496166;19;20014;-73
2023/11/17 01:55:58;;;;;;;4.80;1.52;;;6.00;99.90;;;;;;7485225;19;20097;-73
2023/11/17 01:58:33;;;;;;;1.77;1.50;;;5.90;99.90;;;;;;7505148;19;20055;-73
2023/11/17 02:01:09;;;;;;;1.58;1.30;;;5.90;99.90;;;;;;7486754;19;20323;-73
2023/11/17 02:03:42;;;;;;;2.40;1.60;;;5.80;99.90;;;;;;7465131;19;20026;-73
2023/11/17 02:06:35;;;;;;;2.90;2.15;;;5.80;99.90;;;;;;7499544;19;20176;-73
2023/11/17 02:09:16;;;;;;;2.00;1.60;;;5.80;99.90;;;;;;7500646;19;20491;-73
2023/11/17 02:12:34;;;;;;;1.73;1.20;;;5.70;99.90;;;;;;7465592;19;20010;-73
2023/11/17 02:15:09;;;;;;;1.38;1.23;;;5.60;99.90;;;;;;7487636;19;20085;-73
2023/11/17 02:17:49;;;;;;;1.85;1.67;;;5.50;99.90;;;;;;7498664;19;21531;-73
2023/11/17 02:20:25;;;;;;;1.67;1.52;;;5.40;99.90;;;;;;7503245;19;20026;-73
2023/11/17 02:23:10;;;;;;;2.42;2.22;;;5.30;99.90;;;;;;7478887;19;20022;-74
2023/11/17 02:26:15;;;;;;;3.00;1.80;;;5.20;99.90;;;;;;7490420;19;20052;-73
2023/11/17 02:29:27;;;;;;;1.95;1.73;;;5.10;99.90;;;;;;7497658;19;20019;-73
2023/11/17 02:32:00;;;;;;;3.42;2.50;;;5.10;99.90;;;;;;7485929;19;20019;-72
2023/11/17 02:34:33;;;;;;;2.08;1.38;;;5.10;99.90;;;;;;7489222;19;20037;-73
2023/11/17 02:37:06;;;;;;;1.92;1.55;;;5.00;99.90;;;;;;7505201;19;20023;-73
2023/11/17 02:39:38;;;;;;;1.97;1.67;;;4.90;99.90;;;;;;7480529;19;20035;-72
2023/11/17 02:42:11;;;;;;;2.00;1.73;;;4.90;99.90;;;;;;7493609;19;21790;-73
2023/11/17 02:44:45;;;;;;;2.15;1.80;;;4.80;99.90;;;;;;7500658;19;20014;-73
2023/11/17 02:47:27;;;;;;;2.95;1.80;;;4.70;99.90;;;;;;7487363;19;20025;-72
2023/11/17 02:50:01;;;;;;;1.43;1.10;;;4.70;99.90;;;;;;7503031;19;20022;-72
2023/11/17 02:52:47;;;;;;;1.98;1.70;;;4.70;99.90;;;;;;7517277;19;20064;-72
2023/11/17 02:55:21;;;;;;;1.83;1.30;;;4.70;99.90;;;;;;7507634;19;20036;-72
2023/11/17 02:57:57;;;;;;;1.92;1.55;;;4.60;99.90;;;;;;7506629;19;20018;-72
2023/11/17 03:00:30;;;;;;;2.13;1.50;;;4.60;99.90;;;;;;7481118;19;20064;-73
2023/11/17 03:03:03;;;;;;;3.05;1.77;;;4.60;99.90;;;;;;7500476;19;21523;-72
2023/11/17 03:05:36;;;;;;;2.28;2.00;;;4.60;99.90;;;;;;7514953;19;20616;-72
2023/11/17 03:08:09;;;;;;;2.80;1.88;;;4.50;99.90;;;;;;7501035;19;20022;-72
2023/11/17 03:10:42;;;;;;;4.00;1.88;;;4.50;99.90;;;;;;7486821;19;20042;-72
2023/11/17 03:13:16;;;;;;;6.22;1.70;;;4.50;99.90;;;;;;7492900;19;21485;-72
2023/11/17 03:15:49;;;;;;;1.70;1.60;;;4.50;99.90;;;;;;7507748;19;20516;-72
2023/11/17 03:18:26;;;;;;;1.95;1.75;;;4.40;99.90;;;;;;7508771;19;20006;-72
2023/11/17 03:21:01;;;;;;;3.47;1.73;;;4.40;99.90;;;;;;7517372;19;20011;-72
2023/11/17 03:23:35;;;;;;;1.52;1.35;;;4.30;99.90;;;;;;7507815;19;20013;-72
2023/11/17 03:26:11;;;;;;;2.05;1.85;;;4.40;99.90;;;;;;7500910;19;20025;-72
2023/11/17 03:28:43;;;;;;;1.52;1.42;;;4.30;99.90;;;;;;7485404;19;20018;-72
2023/11/17 03:31:16;;;;;;;1.57;1.47;;;4.20;99.90;;;;;;7493858;19;20567;-72
2023/11/17 03:33:50;;;;;;;1.50;1.33;;;4.20;99.90;;;;;;7496449;19;20275;-72
2023/11/17 03:36:22;;;;;;;1.73;1.37;;;4.10;99.90;;;;;;7483030;19;20028;-71
2023/11/17 03:38:55;;;;;;;1.38;1.27;;;4.10;99.90;;;;;;7509958;19;20283;-71
2023/11/17 03:41:27;;;;;;;1.53;1.40;;;4.00;99.90;;;;;;7503667;19;20029;-71
2023/11/17 03:44:00;;;;;;;1.52;1.25;;;4.00;99.90;;;;;;7502410;19;22775;-71
2023/11/17 03:46:33;;;;;;;2.25;1.90;;;3.90;99.90;;;;;;7481462;19;20021;-72
2023/11/17 03:49:07;;;;;;;2.30;1.42;;;4.00;99.90;;;;;;7493418;19;20022;-71
2023/11/17 03:51:40;;;;;;;1.23;1.08;;;4.00;99.90;;;;;;7478035;19;20022;-72
2023/11/17 03:54:12;;;;;;;2.00;1.67;;;3.90;99.90;;;;;;7502576;19;20411;-71
2023/11/17 03:56:47;;;;;;;1.65;1.42;;;4.00;99.90;;;;;;7502217;19;20011;-72
2023/11/17 03:59:21;;;;;;;1.50;1.40;;;3.90;99.90;;;;;;7506131;19;20014;-71
2023/11/17 04:01:54;;;;;;;2.63;1.95;;;3.90;99.90;;;;;;7483396;19;20022;-71
2023/11/17 04:04:27;;;;;;;2.30;1.90;;;3.90;99.90;;;;;;7503449;19;21210;-72
2023/11/17 04:06:59;;;;;;;2.97;2.30;;;3.90;99.90;;;;;;7509749;19;20033;-71
2023/11/17 04:09:32;;;;;;;2.28;1.90;;;3.90;99.90;;;;;;7477719;19;20022;-71
2023/11/17 04:12:09;;;;;;;1.80;1.70;;;3.90;99.90;;;;;;7495613;19;20010;-71
2023/11/17 04:14:42;;;;;;;2.22;1.85;;;3.90;99.90;;;;;;7506451;19;20011;-71
2023/11/17 04:17:15;;;;;;;;;;;3.90;99.90;;;;;;7510604;19;20022;-71
2023/11/17 04:19:48;;;;;;;2.33;1.98;;;3.90;99.90;;;;;;7512852;19;19928;-70
2023/11/17 04:22:21;;;;;;;1.58;1.48;;;3.90;99.90;;;;;;7511015;19;20010;-70
2023/11/17 04:24:55;;;;;;;2.38;1.70;;;3.80;99.90;;;;;;7510665;19;20020;-71
2023/11/17 04:27:28;;;;;;;2.08;1.70;;;3.80;99.90;;;;;;7513986;19;20025;-71
2023/11/17 04:30:01;;;;;;;2.00;1.52;;;3.80;99.90;;;;;;7519651;19;21274;-71
2023/11/17 04:32:35;;;;;;;1.60;1.48;;;3.80;99.90;;;;;;7490765;19;20018;-72
2023/11/17 04:35:08;;;;;;;1.75;1.52;;;3.70;99.90;;;;;;7514986;19;20025;-72
2023/11/17 04:37:40;;;;;;;2.25;1.67;;;3.70;99.90;;;;;;7509571;19;20122;-71
2023/11/17 04:40:16;;;;;;;2.10;1.50;;;3.80;99.90;;;;;;7529061;19;20015;-72
2023/11/17 04:42:49;;;;;;;2.90;2.05;;;3.70;99.90;;;;;;7489635;19;20349;-71
2023/11/17 04:45:25;;;;;;;2.17;1.60;;;3.80;99.90;;;;;;7495708;19;20025;-71
2023/11/17 04:47:58;;;;;;;1.83;1.30;;;3.70;99.90;;;;;;7516663;19;20094;-72
2023/11/17 04:50:34;;;;;;;2.25;1.75;;;3.70;99.90;;;;;;7512806;19;20057;-71
2023/11/17 04:53:07;;;;;;;1.88;1.30;;;3.70;99.90;;;;;;7530211;19;20052;-71
2023/11/17 04:55:44;;;;;;;2.08;1.20;;;3.70;99.90;;;;;;7525637;19;20049;-71
2023/11/17 04:58:17;;;;;;;1.40;1.00;;;3.70;99.90;;;;;;7533528;19;20029;-71
2023/11/17 05:00:49;;;;;;;1.50;1.13;;;3.60;99.90;;;;;;7524899;19;20014;-71
2023/11/17 05:03:23;;;;;;;1.10;1.00;;;3.60;99.90;;;;;;7513008;19;20063;-71
2023/11/17 05:05:56;;;;;;;1.85;1.27;;;3.60;99.90;;;;;;7532378;19;20058;-71
2023/11/17 05:08:28;;;;;;;1.05;0.90;;;3.60;99.90;;;;;;7512906;19;20018;-70
2023/11/17 05:11:01;;;;;;;1.27;1.03;;;3.40;99.90;;;;;;7522802;19;20130;-70
2023/11/17 05:13:35;;;;;;;1.17;1.08;;;3.50;99.90;;;;;;7530109;19;20018;-70
2023/11/17 05:16:09;;;;;;;2.28;1.70;;;3.60;99.90;;;;;;7497497;19;20025;-72
2023/11/17 05:18:47;;;;;;;2.97;1.30;;;3.60;99.90;;;;;;7512109;19;20026;-72
2023/11/17 05:21:20;;;;;;;2.10;1.40;;;3.60;99.90;;;;;;7521801;19;20022;-72
2023/11/17 05:23:53;;;;;;;3.65;2.33;;;3.60;99.90;;;;;;7503007;19;20113;-70
2023/11/17 05:26:27;;;;;;;3.30;1.90;;;3.70;99.90;;;;;;7498659;19;20029;-69
2023/11/17 05:28:59;;;;;;;2.20;1.88;;;3.60;99.90;;;;;;7479511;19;21792;-71
2023/11/17 05:31:32;;;;;;;2.03;1.83;;;3.60;99.90;;;;;;7524777;19;20034;-71
2023/11/17 05:34:04;;;;;;;3.47;2.47;;;3.60;99.90;;;;;;7490492;19;20048;-73
2023/11/17 05:36:39;;;;;;;2.05;1.80;;;3.60;99.90;;;;;;7511449;19;20011;-72
2023/11/17 05:39:13;;;;;;;2.60;2.10;;;3.60;99.90;;;;;;7411353;19;20014;-71
2023/11/17 05:41:46;;;;;;;3.28;2.20;;;3.70;99.90;;;;;;7486075;19;20022;-71
2023/11/17 05:44:19;;;;;;;;;;;3.70;99.90;;;;;;7494382;19;20029;-71
2023/11/17 05:46:51;;;;;;;3.00;2.50;;;3.60;99.90;;;;;;7448231;19;20599;-71
2023/11/17 05:49:24;;;;;;;3.90;2.60;;;3.60;99.90;;;;;;7518081;19;20018;-71
2023/11/17 05:51:57;;;;;;;3.42;2.70;;;3.60;99.90;;;;;;7494543;19;20267;-71
2023/11/17 05:54:29;;;;;;;3.05;2.40;;;3.60;99.90;;;;;;7486003;19;20022;-72
2023/11/17 05:57:02;;;;;;;3.70;2.80;;;3.60;99.90;;;;;;7454276;19;20026;-72
2023/11/17 05:59:36;;;;;;;3.28;2.67;;;3.50;99.90;;;;;;7508259;19;20025;-70
2023/11/17 06:02:10;;;;;;;5.20;3.50;;;3.60;99.90;;;;;;7484846;19;20029;-71
2023/11/17 06:04:44;;;;;;;6.18;3.22;;;3.60;99.90;;;;;;7474427;19;21372;-72
2023/11/17 06:07:16;;;;;;;5.72;3.53;;;3.70;99.90;;;;;;7485555;19;22137;-71
2023/11/17 06:09:49;;;;;;;6.63;3.70;;;3.60;99.90;;;;;;7466130;19;20393;-70
2023/11/17 06:12:21;;;;;;;3.95;3.28;;;3.60;99.90;;;;;;7472939;19;20016;-73
2023/11/17 06:14:53;;;;;;;7.78;3.95;;;3.60;99.90;;;;;;7490228;19;20015;-72
2023/11/17 06:17:26;;;;;;;5.70;3.90;;;3.60;99.90;;;;;;7492222;19;20003;-70
2023/11/17 06:20:00;;;;;;;4.88;3.75;;;3.70;99.90;;;;;;7504135;19;20021;-70
2023/11/17 06:22:33;;;;;;;6.55;3.75;;;3.70;99.90;;;;;;7496966;19;20007;-71
2023/11/17 06:25:08;;;;;;;9.18;4.10;;;3.60;99.90;;;;;;7494738;19;20029;-72
2023/11/17 06:27:40;;;;;;;7.40;4.82;;;3.60;99.90;;;;;;7524427;19;20520;-71
2023/11/17 06:30:14;;;;;;;14.70;4.82;;;3.70;99.90;;;;;;7491723;19;20880;-71
2023/11/17 06:32:46;;;;;;;6.40;4.28;;;3.60;99.90;;;;;;7481255;19;20015;-70
2023/11/17 06:35:19;;;;;;;6.75;4.53;;;3.60;99.90;;;;;;7468324;19;20025;-70
2023/11/17 06:37:52;;;;;;;7.63;4.20;;;3.60;99.90;;;;;;7486684;19;20022;-71
2023/11/17 06:40:26;;;;;;;7.97;4.88;;;3.70;99.90;;;;;;7524274;19;20026;-74
2023/11/17 06:42:59;;;;;;;13.82;5.13;;;3.70;99.90;;;;;;7488640;19;20006;-71
2023/11/17 06:45:32;;;;;;;8.32;4.90;;;3.70;99.90;;;;;;7517132;19;20018;-71
2023/11/17 06:48:06;;;;;;;5.82;4.35;;;3.80;99.90;;;;;;7512119;19;20027;-71
2023/11/17 06:50:39;;;;;;;6.15;4.05;;;3.70;99.90;;;;;;7523583;19;20015;-74
2023/11/17 06:53:12;;;;;;;11.33;4.77;;;3.70;99.90;;;;;;7510280;19;20014;-71
2023/11/17 06:55:45;;;;;;;6.28;4.10;;;3.70;99.90;;;;;;7499473;19;20024;-72
2023/11/17 06:58:18;;;;;;;6.00;4.30;;;3.70;99.90;;;;;;7518133;19;20018;-72
2023/11/17 07:00:51;;;;;;;6.17;3.30;;;3.80;99.90;;;;;;7507563;19;20022;-69
2023/11/17 07:03:24;;;;;;;6.88;3.42;;;3.80;99.90;;;;;;7505517;19;20269;-71
2023/11/17 07:05:56;;;;;;;5.45;3.83;;;3.80;99.90;;;;;;7517658;19;21522;-70
2023/11/17 07:08:29;;;;;;;5.63;3.78;;;3.90;99.90;;;;;;7518946;19;20019;-70
2023/11/17 07:11:05;;;;;;;7.57;4.50;;;3.80;99.90;;;;;;7516261;19;20048;-70
2023/11/17 07:13:41;;;;;;;8.70;4.18;;;3.80;99.90;;;;;;7526357;19;20018;-70
2023/11/17 07:16:15;;;;;;;8.85;5.03;;;3.80;99.90;;;;;;7509795;19;20652;-72
2023/11/17 07:18:48;;;;;;;8.30;5.07;;;3.80;99.90;;;;;;7490340;19;20662;-70
2023/11/17 07:21:22;;;;;;;7.75;4.72;;;3.80;99.90;;;;;;7519877;19;20027;-70
2023/11/17 07:23:58;;;;;;;9.80;4.60;;;3.80;99.90;;;;;;7530976;19;20633;-70
2023/11/17 07:26:35;;;;;;;12.90;4.95;;;3.80;99.90;;;;;;7523980;19;21551;-71
2023/11/17 07:29:07;;;;;;;7.28;4.45;;;3.80;99.90;;;;;;7531189;19;20014;-70
2023/11/17 07:31:44;;;;;;;5.10;3.58;;;3.80;99.90;;;;;;7534853;19;20014;-69
2023/11/17 07:34:18;;;;;;;12.15;4.90;;;3.80;99.90;;;;;;7541369;19;20010;-70
2023/11/17 07:36:51;;;;;;;8.07;4.32;;;3.80;99.90;;;;;;7546297;19;20006;-70
2023/11/17 07:39:24;;;;;;;12.23;6.90;;;3.80;99.90;;;;;;7532370;19;20014;-70
2023/11/17 07:41:57;;;;;;;6.80;4.28;;;3.80;99.90;;;;;;7541271;19;20018;-70
2023/11/17 07:44:36;;;;;;;6.88;3.92;;;3.80;99.90;;;;;;7547516;19;20014;-70
2023/11/17 07:47:10;;;;;;;9.45;3.70;;;4.00;99.90;;;;;;7532665;19;20566;-69
2023/11/17 07:49:43;;;;;;;5.97;4.18;;;4.00;99.90;;;;;;7544423;19;20018;-71
2023/11/17 07:52:17;;;;;;;;;;;3.90;99.90;;;;;;7551836;19;20018;-70
2023/11/17 07:54:49;;;;;;;8.80;3.72;;;4.00;99.90;;;;;;7566678;19;19935;-70
2023/11/17 07:57:23;;;;;;;6.43;4.00;;;4.00;99.90;;;;;;7545105;19;21007;-70
2023/11/17 07:59:55;;;;;;;9.45;3.83;;;4.00;99.90;;;;;;7553953;19;21084;-70
2023/11/17 08:02:30;;;;;;;4.80;3.13;;;4.00;99.90;;;;;;7539174;19;20906;-70
2023/11/17 08:05:09;;;;;;;7.55;4.38;;;4.00;99.90;;;;;;7549791;19;20045;-70
2023/11/17 08:07:43;;;;;;;6.88;3.67;;;4.00;99.90;;;;;;7549428;19;20015;-71
2023/11/17 08:10:17;;;;;;;;;;;4.10;99.90;;;;;;7542035;19;20010;-70
2023/11/17 08:12:50;;;;;;;5.85;3.63;;;4.10;99.90;;;;;;7543739;19;20269;-70
2023/11/17 08:15:22;;;;;;;6.77;4.50;;;4.10;99.90;;;;;;7527625;19;20014;-70
2023/11/17 08:17:55;;;;;;;6.90;4.32;;;4.10;99.90;;;;;;7565618;19;20021;-70
2023/11/17 08:20:31;;;;;;;4.82;3.80;;;4.10;99.90;;;;;;7564787;19;20014;-71
2023/11/17 08:23:04;;;;;;;5.43;3.92;;;4.10;99.90;;;;;;7544547;19;20364;-71
2023/11/17 08:25:37;;;;;;;10.98;4.55;;;4.20;99.90;;;;;;7557973;19;20641;-71
2023/11/17 08:28:09;;;;;;;6.70;4.57;;;4.20;99.90;;;;;;7546033;19;20020;-72
2023/11/17 08:30:42;;;;;;;7.55;4.85;;;4.30;99.90;;;;;;7552193;19;20056;-71
2023/11/17 08:33:24;;;;;;;9.98;5.18;;;4.20;99.90;;;;;;7551501;19;20006;-71
2023/11/17 08:35:57;;;;;;;9.02;4.32;;;4.20;99.90;;;;;;7551914;19;20025;-70
2023/11/17 08:38:29;;;;;;;5.80;4.18;;;4.30;99.90;;;;;;7555238;19;21613;-71
2023/11/17 08:41:02;;;;;;;6.07;4.13;;;4.30;99.90;;;;;;7548407;19;20026;-72
2023/11/17 08:43:35;;;;;;;9.40;4.73;;;4.30;99.90;;;;;;7543333;19;20149;-70
2023/11/17 08:46:08;;;;;;;7.22;4.88;;;4.30;99.90;;;;;;7548884;19;20149;-71
2023/11/17 08:48:40;;;;;;;9.57;5.18;;;4.30;99.90;;;;;;7542485;19;20011;-71
2023/11/17 08:51:13;;;;;;;9.17;4.63;;;4.30;99.90;;;;;;7547275;19;20015;-71
2023/11/17 08:53:45;;;;;;;7.80;4.60;;;4.50;99.90;;;;;;7558080;19;20025;-73
2023/11/17 08:56:18;;;;;;;7.22;4.97;;;4.40;99.90;;;;;;7533933;19;20056;-70
2023/11/17 08:58:51;;;;;;;9.68;5.40;;;4.40;99.90;;;;;;7564793;19;20029;-71
2023/11/17 09:01:23;;;;;;;9.32;4.68;;;4.40;99.90;;;;;;7554709;19;20515;-71
2023/11/17 09:03:57;;;;;;;6.53;4.53;;;4.30;99.90;;;;;;7559172;19;20028;-71
2023/11/17 09:06:29;;;;;;;7.07;4.72;;;4.30;99.90;;;;;;7555098;19;20914;-71
2023/11/17 09:09:04;;;;;;;7.53;4.20;;;4.40;99.90;;;;;;7561826;19;20010;-73
2023/11/17 09:11:55;;;;;;;6.97;4.97;;;4.40;99.90;;;;;;7563715;19;20010;-71
2023/11/17 09:14:28;;;;;;;11.20;6.55;;;4.50;99.90;;;;;;7558152;19;20014;-71
2023/11/17 09:17:06;;;;;;;5.63;3.58;;;4.60;99.90;;;;;;7570908;19;20010;-70
2023/11/17 09:19:41;;;;;;;8.80;5.65;;;4.60;99.90;;;;;;7581228;19;20872;-71
2023/11/17 09:22:14;;;;;;;6.32;4.45;;;4.50;99.90;;;;;;7565995;19;20422;-71
2023/11/17 09:24:47;;;;;;;10.13;5.38;;;4.50;99.90;;;;;;7580759;19;20680;-72
2023/11/17 09:27:19;;;;;;;9.70;5.97;;;4.50;99.90;;;;;;7580943;19;20010;-73
2023/11/17 09:29:51;;;;;;;9.25;5.75;;;4.50;99.90;;;;;;7583796;19;20010;-72
2023/11/17 09:32:24;;;;;;;10.68;6.15;;;4.50;99.90;;;;;;7585295;19;20154;-72
2023/11/17 09:34:56;;;;;;;11.10;6.57;;;4.60;99.90;;;;;;7582813;19;20024;-72
2023/11/17 09:37:33;;;;;;;11.48;6.03;;;4.60;99.90;;;;;;7580061;19;20484;-72
2023/11/17 09:40:10;;;;;;;13.32;6.95;;;4.60;99.90;;;;;;7552267;19;20024;-72
2023/11/17 09:42:43;;;;;;;11.18;6.88;;;4.60;99.90;;;;;;7560237;19;20476;-70
2023/11/17 09:45:21;;;;;;;15.90;8.02;;;4.60;99.90;;;;;;7560213;19;20025;-70
2023/11/17 09:47:59;;;;;;;15.82;9.55;;;4.70;99.90;;;;;;7585580;19;20023;-69
2023/11/17 09:50:32;;;;;;;17.30;9.88;;;4.70;99.90;;;;;;7581438;19;20011;-73
2023/11/17 09:53:09;;;;;;;14.65;9.05;;;4.70;99.90;;;;;;7558895;19;20015;-71
2023/11/17 09:55:44;;;;;;;12.63;7.93;;;4.70;99.90;;;;;;7588617;19;20018;-70
2023/11/17 09:58:17;;;;;;;10.68;7.07;;;4.70;99.90;;;;;;7585327;19;20126;-70
2023/11/17 10:00:51;;;;;;;10.63;6.93;;;4.80;99.90;;;;;;7590820;19;20028;-71
2023/11/17 10:03:27;;;;;;;12.13;6.47;;;4.70;99.90;;;;;;7581651;19;20014;-70
2023/11/17 10:06:04;;;;;;;22.15;12.98;;;4.70;99.90;;;;;;7596899;19;20086;-71
2023/11/17 10:08:39;;;;;;;15.07;7.97;;;4.70;99.90;;;;;;7559983;19;20010;-70
2023/11/17 10:11:17;;;;;;;16.40;9.80;;;4.70;99.90;;;;;;7505663;19;20606;-70
2023/11/17 10:13:52;;;;;;;12.68;7.50;;;4.80;99.90;;;;;;7554614;19;20015;-71
2023/11/17 10:16:27;;;;;;;6.28;4.57;;;4.80;99.90;;;;;;7506663;19;20664;-71
2023/11/17 10:19:01;;;;;;;5.45;4.25;;;4.80;99.90;;;;;;7475359;19;20146;-69
2023/11/17 10:21:37;;;;;;;5.22;3.97;;;4.70;99.90;;;;;;7528686;19;21351;-72
2023/11/17 10:24:10;;;;;;;7.60;4.90;;;4.70;99.90;;;;;;7493323;19;20014;-71
2023/11/17 10:26:46;;;;;;;7.35;4.65;;;4.80;99.90;;;;;;7537368;19;20018;-73
2023/11/17 10:29:20;;;;;;;15.85;9.73;;;4.70;99.90;;;;;;7549410;19;20018;-72
2023/11/17 10:31:57;;;;;;;12.57;8.40;;;4.80;99.90;;;;;;7557540;19;20018;-72
2023/11/17 10:35:11;;;;;;;7.50;5.57;;;4.70;99.90;;;;;;7538110;19;20665;-71
2023/11/17 10:37:44;;;;;;;6.32;4.82;;;4.70;99.90;;;;;;7508454;19;20030;-71
2023/11/17 10:40:25;;;;;;;9.65;6.18;;;4.80;99.90;;;;;;7538825;19;20096;-71
2023/11/17 10:43:03;;;;;;;12.13;5.78;;;4.80;99.90;;;;;;7541524;19;20014;-71
2023/11/17 10:45:38;;;;;;;8.25;4.50;;;4.80;99.90;;;;;;7550329;19;20014;-71
2023/11/17 10:48:16;;;;;;;3.95;3.30;;;4.90;99.90;;;;;;7532791;19;20472;-71
2023/11/17 10:50:51;;;;;;;8.27;4.20;;;4.70;99.90;;;;;;7538439;19;20018;-70
2023/11/17 10:53:24;;;;;;;6.00;3.35;;;4.90;99.90;;;;;;7491493;19;20078;-72
2023/11/17 10:55:57;;;;;;;4.03;3.40;;;4.90;99.90;;;;;;7488121;19;21893;-72
2023/11/17 10:58:30;;;;;;;4.82;3.83;;;4.90;99.90;;;;;;7480228;19;20946;-70
2023/11/17 11:01:03;;;;;;;6.65;4.28;;;4.90;99.90;;;;;;7533878;19;20030;-72
2023/11/17 11:03:36;;;;;;;5.68;3.97;;;5.00;99.90;;;;;;7533199;19;20017;-73
2023/11/17 11:06:09;;;;;;;7.22;4.82;;;5.00;99.90;;;;;;7524696;19;20018;-72
2023/11/17 11:08:55;;;;;;;5.60;4.38;;;5.00;99.90;;;;;;7519208;19;20048;-72
2023/11/17 11:11:29;;;;;;;8.98;5.00;;;5.00;99.90;;;;;;7530153;19;20023;-72
2023/11/17 11:14:03;;;;;;;8.15;5.30;;;5.10;99.90;;;;;;7534724;19;20323;-71
2023/11/17 11:16:37;;;;;;;5.43;4.35;;;5.10;99.90;;;;;;7543262;19;20025;-71
2023/11/17 11:19:13;;;;;;;6.38;4.32;;;5.10;99.90;;;;;;7502447;19;20615;-71
2023/11/17 11:22:00;;;;;;;6.18;4.68;;;5.10;99.90;;;;;;7545566;19;20024;-72
2023/11/17 11:24:37;;;;;;;9.63;6.00;;;5.10;99.90;;;;;;7530628;19;20048;-72
2023/11/17 11:27:14;;;;;;;7.35;5.43;;;5.20;99.90;;;;;;7496001;19;20052;-71
2023/11/17 11:29:49;;;;;;;11.93;6.80;;;5.30;99.90;;;;;;7545177;19;20014;-70
2023/11/17 11:32:23;;;;;;;10.25;5.97;;;5.30;99.90;;;;;;7555334;19;20014;-70
2023/11/17 11:34:57;;;;;;;8.38;5.65;;;5.20;99.90;;;;;;7535963;19;20045;-70
2023/11/17 11:37:32;;;;;;;10.32;6.82;;;5.20;99.90;;;;;;7467816;19;20018;-70
2023/11/17 11:40:06;;;;;;;9.35;5.45;;;5.20;99.90;;;;;;7462900;19;21502;-70
2023/11/17 11:42:41;;;;;;;;;;;5.20;99.90;;;;;;7540281;19;20018;-69
2023/11/17 11:45:20;;;;;;;9.98;6.13;;;5.20;99.90;;;;;;7552321;19;20949;-72
2023/11/17 11:47:57;;;;;;;12.13;6.07;;;5.10;99.90;;;;;;7553173;19;20014;-73
2023/11/17 11:50:37;;;;;;;11.25;6.97;;;5.10;99.90;;;;;;7548676;19;20580;-73
2023/11/17 11:53:27;;;;;;;10.02;7.20;;;5.20;99.90;;;;;;7562674;19;20895;-72
2023/11/17 11:56:11;;;;;;;16.00;7.75;;;5.20;99.90;;;;;;7550226;19;20025;-73
2023/11/17 11:58:50;;;;;;;10.85;6.60;;;5.20;99.90;;;;;;7547717;19;20021;-70
2023/11/17 12:01:23;;;;;;;10.10;5.90;;;5.20;99.90;;;;;;7554295;19;20044;-73
2023/11/17 12:04:10;;;;;;;10.80;6.05;;;5.30;99.90;;;;;;7560184;19;20041;-73
2023/11/17 12:06:44;;;;;;;9.65;6.55;;;5.30;99.90;;;;;;7522172;19;20364;-73
2023/11/17 12:09:24;;;;;;;8.43;6.45;;;5.40;99.90;;;;;;7537734;19;20056;-72
2023/11/17 12:11:58;;;;;;;9.77;6.40;;;5.40;99.90;;;;;;7558061;19;20006;-73
2023/11/17 12:14:34;;;;;;;9.35;5.57;;;5.40;99.90;;;;;;7556001;19;20019;-72
2023/11/17 12:17:07;;;;;;;9.00;5.57;;;5.40;99.90;;;;;;7558068;19;21635;-74
2023/11/17 12:19:39;;;;;;;;;;;5.40;99.90;;;;;;7536415;19;20011;-70
2023/11/17 12:22:12;;;;;;;5.47;3.90;;;5.40;99.90;;;;;;7544225;19;19922;-72
2023/11/17 12:24:46;;;;;;;9.68;5.07;;;5.40;99.90;;;;;;7534688;19;20010;-73
2023/11/17 12:27:21;;;;;;;6.30;4.82;;;5.30;99.90;;;;;;7549314;19;20912;-73
2023/11/17 12:30:00;;;;;;;5.22;4.00;;;5.30;99.90;;;;;;7547613;19;20010;-72
2023/11/17 12:32:33;;;;;;;6.90;4.93;;;5.30;99.90;;;;;;7526638;19;20010;-71
2023/11/17 12:35:10;;;;;;;6.45;5.00;;;5.30;99.90;;;;;;7498242;19;20631;-71
2023/11/17 12:37:43;;;;;;;9.63;5.55;;;5.40;99.90;;;;;;7511325;19;22228;-71
2023/11/17 12:40:18;;;;;;;9.15;5.65;;;5.30;99.90;;;;;;7523882;19;20018;-71
2023/11/17 12:42:52;;;;;;;6.97;5.03;;;5.40;99.90;;;;;;7527326;19;20944;-73
2023/11/17 12:45:24;;;;;;;6.43;5.55;;;5.40;99.90;;;;;;7542699;19;21376;-70
2023/11/17 12:48:00;;;;;;;10.20;7.75;;;5.40;99.90;;;;;;7540866;19;20022;-73
2023/11/17 12:50:40;;;;;;;8.38;5.53;;;5.40;99.90;;;;;;7535759;19;20105;-72
2023/11/17 12:53:13;;;;;;;8.95;6.32;;;5.40;99.90;;;;;;7544683;19;20022;-72
2023/11/17 12:55:48;;;;;;;11.57;7.38;;;5.40;99.90;;;;;;7510763;19;20022;-70
2023/11/17 12:58:21;;;;;;;7.88;5.55;;;5.40;99.90;;;;;;7516217;19;20022;-72
2023/11/17 13:01:16;;;;;;;10.60;6.55;;;5.40;99.90;;;;;;7518701;19;20022;-72
2023/11/17 13:03:53;;;;;;;9.90;6.18;;;5.50;99.90;;;;;;7523401;19;20029;-73
2023/11/17 13:06:27;;;;;;;10.82;6.90;;;5.50;99.90;;;;;;7542173;19;20374;-73
2023/11/17 13:09:00;;;;;;;;;;;5.50;99.90;;;;;;7540228;19;21510;-70
2023/11/17 13:11:32;;;;;;;9.95;6.78;;;5.50;99.90;;;;;;7552006;19;19922;-70
2023/11/17 13:14:08;;;;;;;9.68;6.82;;;5.50;99.90;;;;;;7545339;19;20279;-73
2023/11/17 13:16:41;;;;;;;9.25;6.40;;;5.50;99.90;;;;;;7549752;19;22834;-72
2023/11/17 13:19:15;;;;;;;10.18;6.93;;;5.40;99.90;;;;;;7556991;19;20022;-70
2023/11/17 13:21:48;;;;;;;6.50;5.22;;;5.40;99.90;;;;;;7549566;19;20010;-73
2023/11/17 13:24:22;;;;;;;7.22;5.28;;;5.40;99.90;;;;;;7557878;19;20048;-73
2023/11/17 13:26:55;;;;;;;8.75;3.92;;;5.30;99.90;;;;;;7546890;19;20030;-72
2023/11/17 13:29:28;;;;;;;6.75;4.30;;;5.40;99.90;;;;;;7539947;19;20023;-70
2023/11/17 13:32:04;;;;;;;5.55;4.20;;;5.50;99.90;;;;;;7520619;19;20021;-72
2023/11/17 13:34:37;;;;;;;6.63;4.43;;;5.50;99.90;;;;;;7534875;19;20048;-71
2023/11/17 13:37:11;;;;;;;6.40;4.43;;;5.50;99.90;;;;;;7513244;19;20018;-70